Time;durP1;ratioP1;P1;durP2;ratioP2;P2;SDS_P1;SDS_P2;PMS_P1;PMS_P2;Temp;Humidity;BMP_temperature;BMP_pressure;BME280_temperature;BME280_humidity;BME280_pressure;Samples;Min_cycle;Max_cycle;Signal;HPM_P1;HPM_P2
2023/03/08 00:01:29;;;;;;;17.50;10.03;;;4.10;99.90;;;;;;5024132;28;20048;-80
2023/03/08 00:03:56;;;;;;;17.97;10.23;;;4.10;99.90;;;;;;5039439;28;20021;-80
2023/03/08 00:06:24;;;;;;;16.13;10.10;;;4.00;99.90;;;;;;5034528;28;20124;-80
2023/03/08 00:08:52;;;;;;;18.03;10.43;;;4.00;99.90;;;;;;5031412;28;20049;-80
2023/03/08 00:11:18;;;;;;;17.90;10.23;;;3.90;99.90;;;;;;5027823;28;20051;-80
2023/03/08 00:13:44;;;;;;;17.30;10.17;;;3.80;99.90;;;;;;5034176;28;20368;-80
2023/03/08 00:16:11;;;;;;;21.97;11.03;;;3.80;99.90;;;;;;5031113;28;20120;-85
2023/03/08 00:18:37;;;;;;;16.57;9.97;;;3.80;99.90;;;;;;5029598;28;20068;-86
2023/03/08 00:21:06;;;;;;;20.87;11.00;;;3.60;99.90;;;;;;5028367;28;20131;-85
2023/03/08 00:23:32;;;;;;;17.93;9.80;;;3.60;99.90;;;;;;5027596;28;20052;-86
2023/03/08 00:25:57;;;;;;;19.43;11.03;;;3.60;99.90;;;;;;5031790;28;20048;-86
2023/03/08 00:28:23;;;;;;;18.73;10.50;;;3.60;99.90;;;;;;5032368;28;21396;-86
2023/03/08 00:31:16;;;;;;;16.13;10.30;;;3.50;99.90;;;;;;5031174;28;20032;-86
2023/03/08 00:33:42;;;;;;;18.10;9.63;;;3.40;99.90;;;;;;5031412;28;20457;-86
2023/03/08 00:36:16;;;;;;;17.60;10.07;;;3.40;99.90;;;;;;5031972;28;20111;-86
2023/03/08 00:38:42;;;;;;;19.03;10.63;;;3.30;99.90;;;;;;5030448;28;20029;-85
2023/03/08 00:41:08;;;;;;;16.00;10.03;;;3.30;99.90;;;;;;5030829;28;20021;-86
2023/03/08 00:43:33;;;;;;;17.33;9.60;;;3.20;99.90;;;;;;5031439;28;20025;-86
2023/03/08 00:45:59;;;;;;;16.10;9.80;;;3.10;99.90;;;;;;5029131;28;20029;-86
2023/03/08 00:48:24;;;;;;;17.37;9.50;;;3.10;99.90;;;;;;5029582;28;20048;-86
2023/03/08 00:50:50;;;;;;;18.50;9.87;;;3.10;99.90;;;;;;5030018;28;20807;-86
2023/03/08 00:53:15;;;;;;;17.93;10.00;;;3.00;99.90;;;;;;5027670;28;20063;-86
2023/03/08 00:55:49;;;;;;;16.80;9.97;;;3.00;99.90;;;;;;5029268;28;20024;-86
2023/03/08 00:58:15;;;;;;;17.73;10.17;;;2.90;99.90;;;;;;5029499;28;20029;-87
2023/03/08 01:00:41;;;;;;;17.17;9.23;;;2.90;99.90;;;;;;5027085;28;20029;-86
2023/03/08 01:03:06;;;;;;;18.43;10.37;;;2.90;99.90;;;;;;5029882;28;20092;-86
2023/03/08 01:05:32;;;;;;;18.53;10.50;;;2.90;99.90;;;;;;5025696;28;20025;-87
2023/03/08 01:08:02;;;;;;;16.53;9.00;;;2.80;99.90;;;;;;5028003;28;20639;-87
2023/03/08 01:10:27;;;;;;;19.13;11.10;;;2.80;99.90;;;;;;5027256;28;20370;-87
2023/03/08 01:12:53;;;;;;;18.03;9.63;;;2.80;99.90;;;;;;5026882;28;20025;-87
2023/03/08 01:15:18;;;;;;;18.20;10.03;;;2.80;99.90;;;;;;5028001;28;20029;-86
2023/03/08 01:17:44;;;;;;;15.33;9.30;;;2.70;99.90;;;;;;5027847;28;20028;-86
2023/03/08 01:20:10;;;;;;;16.10;9.13;;;2.70;99.90;;;;;;5028664;28;20035;-86
2023/03/08 01:22:35;;;;;;;17.10;9.13;;;2.70;99.90;;;;;;5028113;28;20384;-86
2023/03/08 01:25:01;;;;;;;15.97;9.20;;;2.60;99.90;;;;;;5028142;28;20028;-86
2023/03/08 01:27:27;;;;;;;18.70;9.53;;;2.60;99.90;;;;;;5028433;28;20045;-86
2023/03/08 01:29:52;;;;;;;16.60;9.17;;;2.60;99.90;;;;;;5028598;28;20053;-86
2023/03/08 01:32:20;;;;;;;17.97;9.53;;;2.60;99.90;;;;;;5027451;28;20028;-86
2023/03/08 01:34:45;;;;;;;16.83;9.17;;;2.60;99.90;;;;;;5026891;28;20026;-86
2023/03/08 01:37:11;;;;;;;18.93;9.70;;;2.50;99.90;;;;;;5026926;28;20029;-86
2023/03/08 01:39:36;;;;;;;17.30;9.80;;;2.50;99.90;;;;;;5027035;28;20044;-86
2023/03/08 01:42:06;;;;;;;15.70;9.07;;;2.40;99.90;;;;;;5027577;28;20466;-87
2023/03/08 01:44:59;;;;;;;16.13;9.10;;;2.40;99.90;;;;;;5027289;28;20401;-86
2023/03/08 01:47:29;;;;;;;17.57;9.77;;;2.40;99.90;;;;;;5027315;28;20053;-86
2023/03/08 01:50:01;;;;;;;16.53;9.20;;;2.30;99.90;;;;;;5027564;28;20033;-86
2023/03/08 01:52:42;;;;;;;19.80;9.40;;;2.30;99.90;;;;;;5027570;28;20844;-86
2023/03/08 01:55:11;;;;;;;17.33;9.67;;;2.30;99.90;;;;;;5027219;28;20017;-86
2023/03/08 01:57:42;;;;;;;17.57;9.17;;;2.20;99.90;;;;;;5029388;28;20022;-86
2023/03/08 02:00:28;;;;;;;19.57;9.93;;;2.20;99.90;;;;;;5027637;28;20057;-86
2023/03/08 02:03:05;;;;;;;19.93;10.03;;;2.10;99.90;;;;;;5028495;28;20044;-86
2023/03/08 02:05:31;;;;;;;16.20;8.90;;;2.10;99.90;;;;;;5026708;28;20134;-87
2023/03/08 02:07:56;;;;;;;18.20;10.03;;;2.10;99.90;;;;;;5028771;28;20020;-86
2023/03/08 02:10:22;;;;;;;14.53;8.97;;;1.90;99.90;;;;;;5027853;28;20044;-86
2023/03/08 02:12:48;;;;;;;17.07;9.90;;;1.90;99.90;;;;;;5026936;28;21306;-86
2023/03/08 02:15:17;;;;;;;19.60;9.83;;;1.90;99.90;;;;;;5027446;28;20125;-87
2023/03/08 02:17:43;;;;;;;18.93;9.43;;;1.80;99.90;;;;;;5030616;28;20033;-86
2023/03/08 02:20:22;;;;;;;16.10;9.60;;;1.70;99.90;;;;;;5030845;28;20037;-86
2023/03/08 02:22:51;;;;;;;15.17;9.30;;;1.70;99.90;;;;;;5031545;28;20018;-86
2023/03/08 02:25:20;;;;;;;19.63;10.23;;;1.60;99.90;;;;;;5032283;28;20044;-86
2023/03/08 02:27:46;;;;;;;16.23;9.73;;;1.50;99.90;;;;;;5030881;28;20801;-86
2023/03/08 02:30:16;;;;;;;16.53;9.40;;;1.50;99.90;;;;;;5030862;28;20029;-86
2023/03/08 02:32:42;;;;;;;18.33;10.33;;;1.50;99.90;;;;;;5031547;28;20056;-87
2023/03/08 02:35:08;;;;;;;16.27;9.63;;;1.40;99.90;;;;;;5030782;28;20029;-86
2023/03/08 02:37:34;;;;;;;18.00;9.53;;;1.40;99.90;;;;;;5030102;28;20025;-86
2023/03/08 02:39:59;;;;;;;18.13;9.57;;;1.30;99.90;;;;;;5038067;28;20032;-86
2023/03/08 02:42:25;;;;;;;16.73;9.37;;;1.30;99.90;;;;;;5039348;28;20017;-87
2023/03/08 02:44:53;;;;;;;18.70;10.63;;;1.30;99.90;;;;;;5042507;28;20033;-86
2023/03/08 02:47:18;;;;;;;19.10;9.93;;;1.30;99.90;;;;;;5036298;28;20182;-86
2023/03/08 02:49:44;;;;;;;23.60;11.00;;;1.20;99.90;;;;;;5040276;28;20022;-86
2023/03/08 02:52:12;;;;;;;17.07;9.77;;;1.20;99.90;;;;;;5038236;28;20466;-86
2023/03/08 02:54:37;;;;;;;18.13;10.20;;;1.20;99.90;;;;;;5038854;28;20072;-86
2023/03/08 02:57:03;;;;;;;19.13;10.37;;;1.20;99.90;;;;;;5037692;28;20021;-86
2023/03/08 02:59:29;;;;;;;18.17;10.43;;;1.20;99.90;;;;;;5037841;28;20490;-87
2023/03/08 03:01:56;;;;;;;21.17;11.13;;;1.20;99.90;;;;;;5039608;28;20020;-86
2023/03/08 03:04:21;;;;;;;18.23;9.73;;;1.20;99.90;;;;;;5038981;28;20030;-86
2023/03/08 03:06:47;;;;;;;20.03;10.50;;;1.20;99.90;;;;;;5042465;28;20026;-86
2023/03/08 03:09:13;;;;;;;19.07;10.43;;;1.10;99.90;;;;;;5041863;28;20112;-86
2023/03/08 03:11:39;;;;;;;19.47;10.87;;;1.10;99.90;;;;;;5040442;28;20038;-86
2023/03/08 03:14:05;;;;;;;19.37;10.07;;;1.10;99.90;;;;;;5039856;28;20041;-87
2023/03/08 03:16:31;;;;;;;19.03;9.83;;;1.10;99.90;;;;;;5039530;28;20033;-86
2023/03/08 03:18:57;;;;;;;18.70;11.00;;;1.10;99.90;;;;;;5041186;28;20029;-86
2023/03/08 03:21:23;;;;;;;18.97;10.93;;;1.10;99.90;;;;;;5042038;28;20034;-87
2023/03/08 03:23:49;;;;;;;22.83;11.10;;;1.10;99.90;;;;;;5041045;28;20430;-86
2023/03/08 03:26:18;;;;;;;16.53;10.37;;;1.20;99.90;;;;;;5040326;28;20463;-86
2023/03/08 03:28:44;;;;;;;18.67;10.53;;;1.20;99.90;;;;;;5038014;28;20034;-86
2023/03/08 03:31:19;;;;;;;19.00;11.43;;;1.20;99.90;;;;;;5043789;28;20065;-86
2023/03/08 03:33:46;;;;;;;17.48;10.35;;;1.30;99.90;;;;;;5040279;28;20026;-85
2023/03/08 03:36:14;;;;;;;22.70;11.30;;;1.30;99.90;;;;;;5040731;28;20033;-86
2023/03/08 03:38:40;;;;;;;22.33;11.03;;;1.30;99.90;;;;;;5038187;28;20425;-86
2023/03/08 03:41:08;;;;;;;19.73;10.70;;;1.40;99.90;;;;;;5038667;28;20033;-86
2023/03/08 03:43:35;;;;;;;19.67;11.00;;;1.40;99.90;;;;;;5038429;28;20025;-86
2023/03/08 03:46:04;;;;;;;19.93;11.37;;;1.40;99.90;;;;;;5039744;28;20050;-86
2023/03/08 03:48:30;;;;;;;21.13;11.47;;;1.40;99.90;;;;;;5033024;28;20061;-86
2023/03/08 03:50:58;;;;;;;19.90;10.77;;;1.40;99.90;;;;;;5036073;28;20132;-86
2023/03/08 03:53:26;;;;;;;23.47;12.17;;;1.40;99.90;;;;;;5037774;28;20029;-86
2023/03/08 03:55:51;;;;;;;20.67;11.27;;;1.40;99.90;;;;;;5041321;28;20038;-86
2023/03/08 03:58:17;;;;;;;22.53;11.40;;;1.40;99.90;;;;;;5036847;28;20044;-86
2023/03/08 04:00:43;;;;;;;23.23;11.80;;;1.40;99.90;;;;;;5037867;28;20086;-86
2023/03/08 04:03:08;;;;;;;23.97;11.87;;;1.40;99.90;;;;;;5040327;28;20100;-86
2023/03/08 04:05:34;;;;;;;19.37;11.47;;;1.40;99.90;;;;;;5037713;28;20083;-86
2023/03/08 04:08:02;;;;;;;20.57;11.87;;;1.50;99.90;;;;;;5037015;28;20100;-86
2023/03/08 04:10:27;;;;;;;21.73;11.50;;;1.50;99.90;;;;;;5036463;28;21503;-86
2023/03/08 04:12:53;;;;;;;20.70;11.43;;;1.50;99.90;;;;;;5036494;28;20112;-86
2023/03/08 04:15:18;;;;;;;22.90;12.07;;;1.50;99.90;;;;;;5037333;28;20057;-86
2023/03/08 04:17:44;;;;;;;19.43;11.50;;;1.60;99.90;;;;;;5035299;28;20424;-86
2023/03/08 04:20:10;;;;;;;23.93;12.53;;;1.60;99.90;;;;;;5036928;28;20067;-86
2023/03/08 04:22:36;;;;;;;17.97;10.83;;;1.60;99.90;;;;;;5037099;28;20117;-87
2023/03/08 04:25:02;;;;;;;21.83;11.93;;;1.60;99.90;;;;;;5035661;28;20059;-86
2023/03/08 04:27:27;;;;;;;19.70;11.73;;;1.60;99.90;;;;;;5035053;28;20044;-86
2023/03/08 04:29:53;;;;;;;22.03;11.53;;;1.70;99.90;;;;;;5034601;28;20436;-86
2023/03/08 04:32:19;;;;;;;20.07;11.30;;;1.60;99.90;;;;;;5035073;28;20040;-87
2023/03/08 04:34:44;;;;;;;20.20;12.10;;;1.70;99.90;;;;;;5032994;28;20061;-87
2023/03/08 04:37:10;;;;;;;24.27;12.23;;;1.70;99.90;;;;;;5036721;28;20551;-87
2023/03/08 04:39:36;;;;;;;24.33;12.27;;;1.70;99.90;;;;;;5034798;28;20079;-87
2023/03/08 04:42:02;;;;;;;24.87;12.10;;;1.70;99.90;;;;;;5032686;28;20478;-86
2023/03/08 04:44:27;;;;;;;22.33;12.67;;;1.70;99.90;;;;;;5034006;28;20060;-87
2023/03/08 04:46:53;;;;;;;18.33;10.73;;;1.70;99.90;;;;;;5036354;28;20144;-86
2023/03/08 04:49:19;;;;;;;22.00;11.73;;;1.70;99.90;;;;;;5036035;28;20033;-86
2023/03/08 04:51:45;;;;;;;22.77;13.27;;;1.80;99.90;;;;;;5032346;28;20056;-87
2023/03/08 04:54:11;;;;;;;24.90;12.97;;;1.70;99.90;;;;;;5036057;28;20037;-87
2023/03/08 04:56:37;;;;;;;22.17;12.23;;;1.80;99.90;;;;;;5034335;28;20396;-86
2023/03/08 04:59:03;;;;;;;22.07;12.23;;;1.70;99.90;;;;;;5034825;28;20025;-86
2023/03/08 05:01:28;;;;;;;22.40;12.60;;;1.80;99.90;;;;;;5035552;28;20359;-86
2023/03/08 05:03:55;;;;;;;23.23;12.30;;;1.80;99.90;;;;;;5032926;28;20032;-86
2023/03/08 05:06:23;;;;;;;22.47;12.90;;;1.80;99.90;;;;;;5035674;28;20139;-87
2023/03/08 05:08:49;;;;;;;20.57;11.43;;;1.80;99.90;;;;;;5035854;28;20115;-87
2023/03/08 05:11:24;;;;;;;24.37;12.60;;;1.80;99.90;;;;;;5033924;28;20116;-87
2023/03/08 05:13:52;;;;;;;19.73;11.93;;;1.80;99.90;;;;;;5033053;28;20033;-87
2023/03/08 05:16:17;;;;;;;23.57;13.00;;;1.80;99.90;;;;;;5033498;28;20025;-86
2023/03/08 05:18:43;;;;;;;24.90;12.03;;;1.80;99.90;;;;;;5033795;28;20501;-86
2023/03/08 05:21:12;;;;;;;22.43;11.57;;;1.80;99.90;;;;;;5032154;28;20034;-86
2023/03/08 05:23:38;;;;;;;23.33;11.40;;;1.80;99.90;;;;;;5033499;28;20049;-86
2023/03/08 05:26:07;;;;;;;23.17;12.50;;;1.80;99.90;;;;;;5035222;28;20359;-86
2023/03/08 05:28:35;;;;;;;25.23;12.77;;;1.80;99.90;;;;;;5033202;28;20551;-86
2023/03/08 05:31:01;;;;;;;19.83;11.43;;;1.80;99.90;;;;;;5033001;28;20028;-86
2023/03/08 05:33:26;;;;;;;27.93;12.60;;;1.80;99.90;;;;;;5031534;28;20021;-86
2023/03/08 05:35:53;;;;;;;26.33;11.83;;;1.80;99.90;;;;;;5028059;28;20139;-86
2023/03/08 05:38:19;;;;;;;23.37;11.80;;;1.80;99.90;;;;;;5029806;28;21377;-86
2023/03/08 05:40:45;;;;;;;22.00;12.70;;;1.80;99.90;;;;;;5029535;28;20482;-86
2023/03/08 05:43:10;;;;;;;23.83;12.63;;;1.80;99.90;;;;;;5028868;28;20114;-86
2023/03/08 05:45:36;;;;;;;25.90;13.60;;;1.80;99.90;;;;;;5032575;28;20079;-86
2023/03/08 05:48:01;;;;;;;25.17;12.83;;;1.80;99.90;;;;;;5032249;28;20119;-86
2023/03/08 05:50:27;;;;;;;23.07;12.40;;;1.80;99.90;;;;;;5031779;28;20029;-86
2023/03/08 05:52:52;;;;;;;20.87;12.10;;;1.90;99.90;;;;;;5035597;28;20061;-86
2023/03/08 05:55:18;;;;;;;22.33;12.50;;;1.90;99.90;;;;;;5035116;28;20021;-86
2023/03/08 05:57:44;;;;;;;28.13;13.07;;;1.90;99.90;;;;;;5034195;28;20906;-86
2023/03/08 06:00:10;;;;;;;23.07;13.07;;;1.90;99.90;;;;;;5033359;28;20057;-86
2023/03/08 06:02:35;;;;;;;24.43;12.83;;;2.00;99.90;;;;;;5033586;28;20366;-86
2023/03/08 06:05:01;;;;;;;23.73;12.97;;;2.00;99.90;;;;;;5032830;28;20033;-86
2023/03/08 06:07:26;;;;;;;25.13;13.40;;;2.00;99.90;;;;;;5035044;28;20037;-86
2023/03/08 06:09:52;;;;;;;22.83;12.63;;;2.10;99.90;;;;;;5035253;28;20036;-86
2023/03/08 06:12:18;;;;;;;24.30;12.97;;;2.10;99.90;;;;;;5030646;28;20028;-86
2023/03/08 06:14:43;;;;;;;22.73;12.40;;;2.10;99.90;;;;;;5032257;28;21006;-86
2023/03/08 06:17:09;;;;;;;21.60;12.97;;;2.20;99.90;;;;;;5035197;28;20951;-86
2023/03/08 06:19:34;;;;;;;28.50;13.07;;;2.20;99.90;;;;;;5035334;28;20395;-86
2023/03/08 06:22:00;;;;;;;24.90;13.90;;;2.20;99.90;;;;;;5035692;28;20121;-86
2023/03/08 06:24:25;;;;;;;28.57;13.90;;;2.30;99.90;;;;;;5028646;28;20057;-86
2023/03/08 06:26:51;;;;;;;25.00;13.53;;;2.30;99.90;;;;;;5033974;28;20117;-86
2023/03/08 06:29:17;;;;;;;27.63;13.37;;;2.30;99.90;;;;;;5036529;28;20849;-86
2023/03/08 06:31:42;;;;;;;24.07;14.23;;;2.40;99.90;;;;;;5033104;28;20037;-86
2023/03/08 06:34:08;;;;;;;21.83;12.67;;;2.40;99.90;;;;;;5025774;28;20065;-80
2023/03/08 06:36:34;;;;;;;24.53;13.20;;;2.50;99.90;;;;;;5029126;28;20113;-78
2023/03/08 06:38:59;;;;;;;25.53;13.83;;;2.60;99.90;;;;;;5033629;28;20018;-79
2023/03/08 06:41:25;;;;;;;22.70;12.90;;;2.70;99.90;;;;;;5036125;28;20034;-79
2023/03/08 06:43:51;;;;;;;24.87;14.07;;;2.70;99.90;;;;;;5030290;28;20040;-78
2023/03/08 06:46:17;;;;;;;27.23;14.53;;;2.70;99.90;;;;;;5026528;28;20040;-79
2023/03/08 06:48:44;;;;;;;23.60;13.47;;;2.80;99.90;;;;;;5032984;28;20052;-79
2023/03/08 06:51:12;;;;;;;25.87;13.73;;;2.80;99.90;;;;;;5036410;28;20036;-79
2023/03/08 06:53:38;;;;;;;29.03;15.07;;;2.80;99.90;;;;;;5030419;28;20111;-78
2023/03/08 06:56:05;;;;;;;26.03;14.30;;;2.90;99.90;;;;;;5028031;28;20042;-79
2023/03/08 06:58:31;;;;;;;25.30;14.40;;;3.00;99.90;;;;;;5027435;28;20469;-78
2023/03/08 07:00:58;;;;;;;27.37;13.80;;;3.00;99.90;;;;;;5031120;28;20021;-78
2023/03/08 07:03:27;;;;;;;26.60;14.60;;;3.00;99.90;;;;;;5028274;28;20330;-79
2023/03/08 07:05:58;;;;;;;26.03;15.10;;;3.00;99.90;;;;;;5028781;28;20018;-79
2023/03/08 07:08:23;;;;;;;24.03;13.83;;;3.00;99.90;;;;;;5030404;28;20088;-79
2023/03/08 07:10:54;;;;;;;23.60;14.00;;;3.10;99.90;;;;;;5023976;28;20247;-78
2023/03/08 07:13:22;;;;;;;27.37;14.23;;;3.10;99.90;;;;;;5029384;28;20028;-79
2023/03/08 07:15:50;;;;;;;29.97;13.23;;;3.10;99.90;;;;;;5028992;28;20017;-78
2023/03/08 07:18:16;;;;;;;24.57;14.23;;;3.20;99.90;;;;;;5026135;28;20026;-78
2023/03/08 07:20:42;;;;;;;24.90;13.07;;;3.20;99.90;;;;;;5032908;28;20527;-78
2023/03/08 07:23:07;;;;;;;22.97;14.10;;;3.20;99.90;;;;;;5029934;28;20032;-78
2023/03/08 07:25:33;;;;;;;24.70;14.30;;;3.30;99.90;;;;;;5029580;28;20398;-78
2023/03/08 07:28:01;;;;;;;24.93;14.10;;;3.30;99.90;;;;;;5028980;28;20093;-78
2023/03/08 07:30:26;;;;;;;31.17;13.70;;;3.40;99.90;;;;;;5026834;28;20109;-78
2023/03/08 07:32:53;;;;;;;24.77;13.97;;;3.40;99.90;;;;;;5026302;28;20459;-78
2023/03/08 07:35:19;;;;;;;25.37;13.27;;;3.40;99.90;;;;;;5026190;28;20394;-79
2023/03/08 07:37:46;;;;;;;28.13;15.40;;;3.50;99.90;;;;;;5031170;28;20085;-78
2023/03/08 07:40:16;;;;;;;27.37;14.57;;;3.50;99.90;;;;;;5025459;28;20025;-78
2023/03/08 07:42:43;;;;;;;25.27;14.87;;;3.60;99.90;;;;;;5029574;28;20021;-78
2023/03/08 07:45:11;;;;;;;29.23;13.77;;;3.70;99.90;;;;;;5026841;28;21406;-78
2023/03/08 07:47:36;;;;;;;25.77;14.63;;;3.80;99.90;;;;;;5029758;28;20054;-78
2023/03/08 07:50:02;;;;;;;24.77;14.20;;;3.90;99.90;;;;;;5030085;28;20026;-78
2023/03/08 07:52:29;;;;;;;22.33;14.73;;;4.00;99.90;;;;;;5030386;28;20024;-78
2023/03/08 07:54:55;;;;;;;24.87;13.90;;;4.10;99.90;;;;;;5027688;28;20359;-78
2023/03/08 07:57:21;;;;;;;22.50;13.30;;;4.20;99.90;;;;;;5031552;28;20460;-78
2023/03/08 07:59:47;;;;;;;22.97;13.03;;;4.30;99.90;;;;;;5026606;28;20059;-79
2023/03/08 08:02:13;;;;;;;26.93;12.97;;;4.40;99.90;;;;;;5025577;28;20033;-78
2023/03/08 08:04:39;;;;;;;25.60;15.07;;;4.50;99.90;;;;;;5026013;28;20025;-78
2023/03/08 08:07:06;;;;;;;24.30;13.23;;;4.70;99.90;;;;;;5032265;28;20102;-78
2023/03/08 08:09:32;;;;;;;26.23;14.70;;;4.80;99.90;;;;;;5031782;28;20030;-78
2023/03/08 08:11:58;;;;;;;26.47;14.50;;;4.90;99.90;;;;;;5031708;28;20025;-79
2023/03/08 08:14:23;;;;;;;22.87;13.70;;;5.10;99.90;;;;;;5034067;28;20482;-78
2023/03/08 08:16:49;;;;;;;27.83;14.60;;;5.20;99.90;;;;;;5030107;28;20601;-78
2023/03/08 08:19:15;;;;;;;27.10;13.67;;;5.30;99.90;;;;;;5030552;28;20021;-79
2023/03/08 08:21:41;;;;;;;28.00;14.30;;;5.40;99.90;;;;;;5032907;28;20117;-78
2023/03/08 08:24:07;;;;;;;22.37;13.77;;;5.50;99.90;;;;;;5030304;28;20037;-78
2023/03/08 08:26:33;;;;;;;21.07;13.23;;;5.70;99.90;;;;;;5028256;28;20029;-78
2023/03/08 08:28:58;;;;;;;25.60;12.93;;;5.70;99.90;;;;;;5031322;28;20378;-78
2023/03/08 08:31:29;;;;;;;22.30;12.73;;;5.80;99.90;;;;;;5026652;28;20029;-79
2023/03/08 08:33:56;;;;;;;20.33;12.63;;;5.80;99.90;;;;;;5029974;28;20555;-78
2023/03/08 08:36:22;;;;;;;21.50;13.57;;;5.90;99.90;;;;;;5028815;28;20477;-79
2023/03/08 08:38:48;;;;;;;23.73;13.70;;;5.90;99.90;;;;;;5029992;28;20604;-78
2023/03/08 08:41:17;;;;;;;23.97;12.83;;;6.00;99.90;;;;;;5027970;28;20021;-78
2023/03/08 08:43:44;;;;;;;25.37;12.97;;;6.00;99.90;;;;;;5025489;28;20124;-78
2023/03/08 08:46:10;;;;;;;30.73;13.50;;;6.00;99.90;;;;;;5027502;28;20551;-79
2023/03/08 08:48:37;;;;;;;20.73;12.80;;;6.00;99.90;;;;;;5029601;28;20048;-79
2023/03/08 08:51:03;;;;;;;21.77;12.87;;;6.00;99.90;;;;;;5029478;28;20416;-78
2023/03/08 08:53:29;;;;;;;24.27;12.60;;;6.00;99.90;;;;;;5028568;28;20033;-78
2023/03/08 08:55:55;;;;;;;27.13;12.67;;;6.00;99.90;;;;;;5025603;28;20025;-78
2023/03/08 08:58:20;;;;;;;20.77;12.27;;;6.10;99.90;;;;;;5028431;28;20029;-79
2023/03/08 09:00:46;;;;;;;21.20;12.27;;;6.10;99.90;;;;;;5029401;28;20035;-78
2023/03/08 09:03:12;;;;;;;20.03;11.70;;;6.10;99.90;;;;;;5025584;28;20025;-78
2023/03/08 09:05:39;;;;;;;22.93;12.07;;;6.10;99.90;;;;;;5029363;28;20025;-79
2023/03/08 09:08:05;;;;;;;22.97;12.20;;;6.20;99.90;;;;;;5026680;28;20068;-79
2023/03/08 09:10:33;;;;;;;18.27;12.03;;;6.20;99.90;;;;;;5027764;28;20040;-79
2023/03/08 09:12:59;;;;;;;20.37;12.53;;;6.30;99.90;;;;;;5030447;28;20017;-78
2023/03/08 09:15:25;;;;;;;20.20;12.53;;;6.30;99.90;;;;;;5027443;28;20031;-78
2023/03/08 09:17:51;;;;;;;22.13;13.00;;;6.30;99.90;;;;;;5028058;28;20029;-79
2023/03/08 09:20:17;;;;;;;19.20;11.03;;;6.30;99.90;;;;;;5026461;28;20024;-78
2023/03/08 09:22:43;;;;;;;20.60;12.17;;;6.40;99.90;;;;;;5029713;28;20036;-78
2023/03/08 09:25:09;;;;;;;19.40;10.97;;;6.40;99.90;;;;;;5031841;28;20386;-78
2023/03/08 09:27:36;;;;;;;19.27;11.90;;;6.40;99.90;;;;;;5029244;28;20028;-78
2023/03/08 09:30:03;;;;;;;23.27;11.43;;;6.40;99.90;;;;;;5027361;28;20355;-78
2023/03/08 09:32:31;;;;;;;23.63;11.83;;;6.40;99.90;;;;;;5029078;28;20304;-78
2023/03/08 09:34:57;;;;;;;20.67;11.60;;;6.40;99.90;;;;;;5025994;28;20030;-78
2023/03/08 09:37:22;;;;;;;21.00;12.17;;;6.30;99.90;;;;;;5029329;28;20084;-78
2023/03/08 09:39:50;;;;;;;18.03;11.87;;;6.30;99.90;;;;;;5029222;28;20025;-78
2023/03/08 09:42:22;;;;;;;20.50;11.27;;;6.30;99.90;;;;;;5028014;28;20128;-78
2023/03/08 09:45:22;;;;;;;23.63;13.20;;;6.40;99.90;;;;;;5025212;28;20021;-78
2023/03/08 09:48:07;;;;;;;21.37;12.40;;;6.60;99.90;;;;;;5024675;28;20123;-79
2023/03/08 09:50:45;;;;;;;21.98;12.05;;;6.70;99.90;;;;;;5023302;28;20087;-79
2023/03/08 09:53:10;;;;;;;19.20;11.83;;;6.80;99.90;;;;;;5026881;28;20021;-79
2023/03/08 09:55:45;;;;;;;20.83;12.40;;;6.90;99.90;;;;;;5025338;28;20033;-79
2023/03/08 09:58:30;;;;;;;21.27;12.13;;;6.90;99.90;;;;;;5026691;28;20033;-79
2023/03/08 10:01:03;;;;;;;19.50;12.13;;;7.00;99.90;;;;;;5025861;28;20034;-79
2023/03/08 10:03:34;;;;;;;17.53;11.80;;;7.00;99.90;;;;;;5027134;28;20075;-79
2023/03/08 10:06:34;;;;;;;20.30;12.43;;;7.00;99.90;;;;;;5024828;28;20620;-79
2023/03/08 10:09:38;;;;;;;19.77;12.07;;;7.00;99.90;;;;;;5026643;28;21312;-79
2023/03/08 10:12:13;;;;;;;21.83;12.77;;;7.00;99.90;;;;;;5027111;28;20056;-79
2023/03/08 10:14:51;;;;;;;17.98;11.95;;;6.90;99.90;;;;;;5026365;28;20030;-79
2023/03/08 10:17:25;;;;;;;19.00;11.97;;;6.80;99.90;;;;;;5026034;28;20060;-79
2023/03/08 10:20:06;;;;;;;21.50;12.77;;;6.80;99.90;;;;;;5029843;28;20052;-79
2023/03/08 10:22:37;;;;;;;24.73;12.47;;;6.80;99.90;;;;;;5027409;28;20021;-79
2023/03/08 10:25:13;;;;;;;21.77;12.10;;;6.80;99.90;;;;;;5023461;28;20018;-79
2023/03/08 10:27:39;;;;;;;24.73;12.40;;;6.80;99.90;;;;;;5023035;28;20036;-79
2023/03/08 10:30:13;;;;;;;21.47;11.83;;;6.80;99.90;;;;;;5026279;28;20017;-79
2023/03/08 10:32:45;;;;;;;20.92;12.15;;;6.80;99.90;;;;;;5026536;28;20049;-79
2023/03/08 10:35:11;;;;;;;24.53;13.10;;;6.80;99.90;;;;;;5025921;28;21436;-79
2023/03/08 10:37:37;;;;;;;26.83;12.60;;;6.90;99.90;;;;;;5026411;28;20013;-79
2023/03/08 10:40:08;;;;;;;20.83;12.60;;;6.90;99.90;;;;;;5029276;28;20051;-78
2023/03/08 10:42:34;;;;;;;23.70;12.33;;;6.80;99.90;;;;;;5030260;28;20037;-78
2023/03/08 10:45:21;;;;;;;21.27;12.53;;;6.80;99.90;;;;;;5028287;28;20025;-79
2023/03/08 10:48:18;;;;;;;23.90;12.50;;;6.80;99.90;;;;;;5029412;28;20046;-78
2023/03/08 10:50:44;;;;;;;21.03;12.60;;;6.70;99.90;;;;;;5030613;28;20091;-79
2023/03/08 10:53:18;;;;;;;24.97;13.53;;;6.70;99.90;;;;;;5028288;28;20063;-78
2023/03/08 10:55:46;;;;;;;21.60;10.77;;;6.80;99.90;;;;;;5030656;28;20026;-78
2023/03/08 10:58:33;;;;;;;18.50;9.43;;;6.70;99.90;;;;;;5032004;28;20026;-79
2023/03/08 11:01:06;;;;;;;13.23;9.03;;;6.70;99.90;;;;;;5031780;28;20041;-79
2023/03/08 11:03:32;;;;;;;14.23;7.17;;;6.70;99.90;;;;;;5032270;28;20108;-79
2023/03/08 11:06:14;;;;;;;11.90;7.73;;;6.70;99.90;;;;;;5031189;28;20400;-79
2023/03/08 11:08:58;;;;;;;11.33;7.03;;;6.70;99.90;;;;;;5029395;28;20569;-79
2023/03/08 11:11:24;;;;;;;13.17;7.43;;;6.60;99.90;;;;;;5027456;28;20037;-79
2023/03/08 11:13:51;;;;;;;12.07;7.10;;;6.60;99.90;;;;;;5028924;28;20261;-79
2023/03/08 11:16:40;;;;;;;12.00;7.47;;;6.60;99.90;;;;;;5030713;28;20057;-79
2023/03/08 11:19:31;;;;;;;12.90;7.03;;;6.60;99.90;;;;;;5030963;28;20021;-79
2023/03/08 11:22:08;;;;;;;12.37;7.47;;;6.60;99.90;;;;;;5031304;28;20391;-79
2023/03/08 11:24:58;;;;;;;11.17;6.90;;;6.50;99.90;;;;;;5027523;28;20028;-79
2023/03/08 11:28:00;;;;;;;13.80;7.27;;;6.50;99.90;;;;;;5026456;28;20477;-79
2023/03/08 11:31:03;;;;;;;12.70;7.40;;;6.50;99.90;;;;;;5030962;28;20026;-78
2023/03/08 11:34:06;;;;;;;14.07;7.40;;;6.50;99.90;;;;;;5029683;28;20029;-79
2023/03/08 11:36:46;;;;;;;10.50;7.20;;;6.60;99.90;;;;;;5026154;28;20029;-79
2023/03/08 11:39:33;;;;;;;12.30;6.40;;;6.70;99.90;;;;;;5029303;28;20021;-75
2023/03/08 11:42:21;;;;;;;14.13;6.80;;;6.70;99.90;;;;;;5026471;28;20048;-79
2023/03/08 11:45:24;;;;;;;14.20;6.90;;;6.80;99.90;;;;;;5031074;28;20037;-79
2023/03/08 11:47:52;;;;;;;9.13;6.10;;;6.80;99.90;;;;;;5029648;28;20038;-79
2023/03/08 11:50:42;;;;;;;8.77;5.90;;;6.90;99.90;;;;;;5028952;28;21456;-79
2023/03/08 11:53:34;;;;;;;13.13;5.43;;;6.90;99.90;;;;;;5026968;28;20017;-79
2023/03/08 11:56:02;;;;;;;7.23;5.00;;;7.00;99.90;;;;;;5029413;28;20041;-79
2023/03/08 11:58:47;;;;;;;8.50;5.30;;;7.10;99.90;;;;;;5029024;28;20033;-79
2023/03/08 12:01:25;;;;;;;9.53;4.70;;;7.20;99.90;;;;;;5024817;28;20029;-79
2023/03/08 12:03:54;;;;;;;9.30;5.07;;;7.40;99.90;;;;;;5028086;28;20823;-79
2023/03/08 12:06:23;;;;;;;15.77;4.37;;;7.50;99.90;;;;;;5030367;28;20053;-79
2023/03/08 12:09:11;;;;;;;9.33;4.60;;;7.60;99.90;;;;;;5027750;28;20029;-79
2023/03/08 12:11:48;;;;;;;8.37;4.87;;;7.70;99.90;;;;;;5024138;28;20026;-80
2023/03/08 12:14:29;;;;;;;9.40;4.80;;;7.90;99.90;;;;;;5024073;28;20151;-79
2023/03/08 12:17:15;;;;;;;10.03;5.00;;;8.10;99.90;;;;;;5024841;28;20025;-79
2023/03/08 12:19:46;;;;;;;9.23;5.13;;;8.20;99.90;;;;;;5029210;28;20078;-79
2023/03/08 12:22:24;;;;;;;10.03;5.43;;;8.40;99.90;;;;;;5026219;28;20034;-80
2023/03/08 12:25:13;;;;;;;8.47;5.40;;;8.60;99.90;;;;;;5024692;28;20021;-79
2023/03/08 12:27:47;;;;;;;9.60;5.87;;;8.70;99.90;;;;;;5021208;28;20115;-84
2023/03/08 12:30:25;;;;;;;12.00;6.57;;;8.90;99.90;;;;;;5024740;28;20018;-83
2023/03/08 12:32:54;;;;;;;10.57;6.07;;;8.90;99.90;;;;;;5024775;28;20029;-84
2023/03/08 12:35:32;;;;;;;10.43;6.40;;;9.10;99.90;;;;;;5024642;28;20513;-85
2023/03/08 12:38:06;;;;;;;9.87;6.60;;;9.20;99.90;;;;;;5023320;28;20029;-85
2023/03/08 12:40:43;;;;;;;9.57;6.43;;;9.30;99.90;;;;;;5024591;28;21038;-85
2023/03/08 12:43:19;;;;;;;11.20;6.60;;;9.40;99.90;;;;;;5023747;28;20655;-84
2023/03/08 12:46:02;;;;;;;11.80;7.00;;;9.40;99.90;;;;;;5023996;28;20029;-84
2023/03/08 12:48:36;;;;;;;10.37;5.83;;;9.40;99.90;;;;;;5022744;28;20081;-84
2023/03/08 12:51:28;;;;;;;10.20;6.28;;;9.50;99.90;;;;;;5023168;28;20029;-85
2023/03/08 12:54:00;;;;;;;9.60;5.60;;;9.70;99.90;;;;;;5022325;28;20032;-84